createdAt,value
2018-10-17T00:00:52.761Z,1012.44
2018-10-17T00:01:51.040Z,1012.39
2018-10-17T00:02:51.027Z,1012.37
2018-10-17T00:03:51.843Z,1012.39
2018-10-17T00:04:51.087Z,1012.38
2018-10-17T00:05:50.959Z,1012.38
2018-10-17T00:06:54.516Z,1012.38
2018-10-17T00:07:51.173Z,1012.39
2018-10-17T00:08:51.022Z,1012.42
2018-10-17T00:09:51.703Z,1012.40
2018-10-17T00:10:54.724Z,1012.39
2018-10-17T00:11:51.748Z,1012.41
2018-10-17T00:12:50.982Z,1012.38
2018-10-17T00:13:51.882Z,1012.39
2018-10-17T00:14:54.884Z,1012.40
2018-10-17T00:15:50.969Z,1012.39
2018-10-17T00:16:51.036Z,1012.41
2018-10-17T00:17:52.579Z,1012.38
2018-10-17T00:18:54.925Z,1012.43
2018-10-17T00:19:51.685Z,1012.40
2018-10-17T00:20:51.009Z,1012.40
2018-10-17T00:21:54.397Z,1012.37
2018-10-17T00:22:50.950Z,1012.40
2018-10-17T00:23:50.996Z,1012.36
2018-10-17T00:24:50.974Z,1012.40
2018-10-17T00:25:54.858Z,1012.39
2018-10-17T00:26:50.958Z,1012.36
2018-10-17T00:27:54.350Z,1012.42
2018-10-17T00:28:51.028Z,1012.40
2018-10-17T00:29:50.981Z,1012.37
2018-10-17T00:30:55.612Z,1012.36
2018-10-17T00:31:50.975Z,1012.38
2018-10-17T00:32:50.939Z,1012.41
2018-10-17T00:33:51.691Z,1012.36
2018-10-17T00:34:50.918Z,1012.38
2018-10-17T00:35:50.933Z,1012.36
2018-10-17T00:36:55.075Z,1012.35
2018-10-17T00:37:50.908Z,1012.38
2018-10-17T00:38:55.048Z,1012.34
2018-10-17T00:39:52.320Z,1012.34
2018-10-17T00:40:55.094Z,1012.35
2018-10-17T00:41:50.954Z,1012.30
2018-10-17T00:42:50.950Z,1012.35
2018-10-17T00:43:52.373Z,1012.33
2018-10-17T00:44:50.927Z,1012.30
2018-10-17T00:45:50.923Z,1012.29
2018-10-17T00:46:52.411Z,1012.29
2018-10-17T00:47:50.896Z,1012.25
2018-10-17T00:48:50.968Z,1012.27
2018-10-17T00:49:52.379Z,1012.25
2018-10-17T00:50:50.922Z,1012.24
2018-10-17T00:51:50.890Z,1012.20
2018-10-17T00:52:50.919Z,1012.25
2018-10-17T00:53:50.886Z,1012.23
2018-10-17T00:54:50.927Z,1012.22
2018-10-17T00:55:50.880Z,1012.27
2018-10-17T00:56:50.884Z,1012.27
2018-10-17T00:57:52.654Z,1012.25
2018-10-17T00:58:50.955Z,1012.24
2018-10-17T00:59:51.874Z,1012.26
2018-10-17T01:00:51.034Z,1012.19
2018-10-17T01:01:50.905Z,1012.21
2018-10-17T01:02:50.944Z,1012.22
2018-10-17T01:03:51.895Z,1012.17
2018-10-17T01:04:52.798Z,1012.19
2018-10-17T01:05:50.825Z,1012.21
2018-10-17T01:06:50.888Z,1012.24
2018-10-17T01:07:51.558Z,1012.25
2018-10-17T01:08:50.829Z,1012.23
2018-10-17T01:09:50.816Z,1012.22
2018-10-17T01:10:50.858Z,1012.22
2018-10-17T01:11:50.823Z,1012.21
2018-10-17T01:12:50.974Z,1012.16
2018-10-17T01:13:50.854Z,1012.20
2018-10-17T01:14:50.996Z,1012.21
2018-10-17T01:15:50.827Z,1012.21
2018-10-17T01:16:50.825Z,1012.21
2018-10-17T01:17:50.994Z,1012.20
2018-10-17T01:18:50.817Z,1012.19
2018-10-17T01:19:51.684Z,1012.17
2018-10-17T01:20:50.814Z,1012.18
2018-10-17T01:21:50.815Z,1012.16
2018-10-17T01:22:50.825Z,1012.15
2018-10-17T01:23:50.825Z,1012.17
2018-10-17T01:24:54.202Z,1012.13
2018-10-17T01:25:51.572Z,1012.13
2018-10-17T01:26:50.811Z,1012.19
2018-10-17T01:27:51.861Z,1012.15
2018-10-17T01:28:50.826Z,1012.11
2018-10-17T01:29:50.856Z,1012.13
2018-10-17T01:30:52.379Z,1012.07
2018-10-17T01:31:52.237Z,1012.08
2018-10-17T01:32:50.756Z,1012.11
2018-10-17T01:33:50.796Z,1012.06
2018-10-17T01:34:52.445Z,1012.05
2018-10-17T01:35:51.460Z,1012.10
2018-10-17T01:36:52.313Z,1012.04
2018-10-17T01:37:51.493Z,1012.06
2018-10-17T01:38:52.398Z,1012.06
2018-10-17T01:39:51.500Z,1012.06
2018-10-17T01:40:52.394Z,1012.10
2018-10-17T01:41:51.487Z,1012.05
2018-10-17T01:42:52.376Z,1012.03
2018-10-17T01:43:51.496Z,1012.04
2018-10-17T01:44:52.358Z,1012.02
2018-10-17T01:45:51.444Z,1012.00
2018-10-17T01:46:52.376Z,1011.97
2018-10-17T01:47:51.467Z,1011.98
2018-10-17T01:48:52.205Z,1011.97
2018-10-17T01:49:52.102Z,1011.93
2018-10-17T01:50:52.163Z,1011.92
2018-10-17T01:51:52.394Z,1011.94
2018-10-17T01:52:52.196Z,1011.92
2018-10-17T01:53:51.771Z,1011.93
2018-10-17T01:54:52.402Z,1011.94
2018-10-17T01:55:52.248Z,1011.91
2018-10-17T01:56:52.708Z,1011.88
2018-10-17T01:57:52.156Z,1011.89
2018-10-17T01:58:52.401Z,1011.89
2018-10-17T01:59:52.377Z,1011.85
2018-10-17T02:00:52.389Z,1011.86
2018-10-17T02:01:52.374Z,1011.80
2018-10-17T02:02:52.437Z,1011.82
2018-10-17T02:03:52.409Z,1011.84
2018-10-17T02:04:52.412Z,1011.78
2018-10-17T02:05:51.872Z,1011.79
2018-10-17T02:06:51.759Z,1011.78
2018-10-17T02:07:51.753Z,1011.75
2018-10-17T02:08:52.380Z,1011.72
2018-10-17T02:09:52.473Z,1011.72
2018-10-17T02:10:51.877Z,1011.72
2018-10-17T02:11:52.439Z,1011.71
2018-10-17T02:12:52.397Z,1011.75
2018-10-17T02:13:52.379Z,1011.76
2018-10-17T02:14:52.448Z,1011.79
2018-10-17T02:15:51.875Z,1011.77
2018-10-17T02:16:52.425Z,1011.78
2018-10-17T02:17:52.397Z,1011.80
2018-10-17T02:18:51.972Z,1011.75
2018-10-17T02:19:51.903Z,1011.76
2018-10-17T02:20:52.176Z,1011.74
2018-10-17T02:21:52.374Z,1011.72
2018-10-17T02:22:52.451Z,1011.74
2018-10-17T02:23:51.882Z,1011.69
2018-10-17T02:24:52.382Z,1011.74
2018-10-17T02:25:52.451Z,1011.75
2018-10-17T02:26:52.361Z,1011.73
2018-10-17T02:27:52.204Z,1011.74
2018-10-17T02:28:54.100Z,1011.75
2018-10-17T02:29:52.478Z,1011.75
2018-10-17T02:30:52.693Z,1011.74
2018-10-17T02:31:52.422Z,1011.79
2018-10-17T02:32:52.314Z,1011.79
2018-10-17T02:33:51.955Z,1011.74
2018-10-17T02:34:52.201Z,1011.73
2018-10-17T02:35:52.210Z,1011.77
2018-10-17T02:36:52.227Z,1011.77
2018-10-17T02:37:51.896Z,1011.75
2018-10-17T02:38:52.293Z,1011.72
2018-10-17T02:39:52.207Z,1011.74
2018-10-17T02:40:52.237Z,1011.74
2018-10-17T02:41:52.179Z,1011.75
2018-10-17T02:42:52.250Z,1011.78
2018-10-17T02:43:52.200Z,1011.77
2018-10-17T02:44:52.199Z,1011.78
2018-10-17T02:45:51.635Z,1011.79
2018-10-17T02:46:52.253Z,1011.78
2018-10-17T02:47:52.242Z,1011.82
2018-10-17T02:48:51.765Z,1011.83
2018-10-17T02:49:52.246Z,1011.81
2018-10-17T02:50:54.054Z,1011.81
2018-10-17T02:51:52.252Z,1011.84
2018-10-17T02:52:51.911Z,1011.87
2018-10-17T02:53:52.241Z,1011.86
2018-10-17T02:54:52.246Z,1011.91
2018-10-17T02:55:52.247Z,1011.88
2018-10-17T02:56:50.545Z,1011.85
2018-10-17T02:57:51.726Z,1011.89
2018-10-17T02:58:52.236Z,1011.90
2018-10-17T02:59:52.254Z,1011.90
2018-10-17T03:00:52.301Z,1011.89
2018-10-17T03:01:52.255Z,1011.93
2018-10-17T03:02:52.261Z,1011.88
2018-10-17T03:03:54.123Z,1011.91
2018-10-17T03:04:52.216Z,1011.90
2018-10-17T03:05:52.890Z,1011.87
2018-10-17T03:06:51.663Z,1011.87
2018-10-17T03:07:52.229Z,1011.85
2018-10-17T03:08:52.208Z,1011.85
2018-10-17T03:09:52.017Z,1011.88
2018-10-17T03:10:51.898Z,1011.85
2018-10-17T03:11:52.776Z,1011.85
2018-10-17T03:12:58.951Z,1011.83
2018-10-17T03:13:52.175Z,1011.86
2018-10-17T03:14:51.628Z,1011.85
2018-10-17T03:15:51.582Z,1011.85
2018-10-17T03:16:51.635Z,1011.81
2018-10-17T03:17:52.424Z,1011.82
2018-10-17T03:18:51.965Z,1011.88
2018-10-17T03:19:51.655Z,1011.88
2018-10-17T03:20:52.246Z,1011.86
2018-10-17T03:21:52.456Z,1011.88
2018-10-17T03:22:52.224Z,1011.89
2018-10-17T03:23:53.995Z,1011.90
2018-10-17T03:24:53.960Z,1011.94
2018-10-17T03:25:51.993Z,1011.92
2018-10-17T03:26:51.892Z,1011.96
2018-10-17T03:27:51.946Z,1011.98
2018-10-17T03:28:53.730Z,1011.97
2018-10-17T03:29:53.713Z,1011.97
2018-10-17T03:30:53.933Z,1012.05
2018-10-17T03:31:53.752Z,1011.99
2018-10-17T03:32:53.709Z,1012.02
2018-10-17T03:33:53.704Z,1012.08
2018-10-17T03:34:53.856Z,1012.02
2018-10-17T03:35:54.004Z,1012.06
2018-10-17T03:36:53.773Z,1012.05
2018-10-17T03:37:53.894Z,1012.04
2018-10-17T03:38:52.263Z,1012.06
2018-10-17T03:39:51.852Z,1012.07
2018-10-17T03:40:51.863Z,1012.06
2018-10-17T03:41:52.520Z,1012.04
2018-10-17T03:42:51.923Z,1012.07
2018-10-17T03:43:51.585Z,1012.07
2018-10-17T03:44:51.902Z,1012.05
2018-10-17T03:45:51.697Z,1012.05
2018-10-17T03:46:51.996Z,1012.06
2018-10-17T03:47:52.169Z,1012.07
2018-10-17T03:48:51.760Z,1012.02
2018-10-17T03:49:51.818Z,1012.01
2018-10-17T03:50:51.750Z,1012.05
2018-10-17T03:51:51.906Z,1012.07
2018-10-17T03:52:52.244Z,1012.10
2018-10-17T03:53:51.535Z,1012.08
2018-10-17T03:54:51.545Z,1012.07
2018-10-17T03:55:51.466Z,1012.03
2018-10-17T03:56:51.463Z,1012.08
2018-10-17T03:57:51.815Z,1012.12
2018-10-17T03:58:51.840Z,1012.09
2018-10-17T03:59:51.907Z,1012.11
2018-10-17T04:00:51.930Z,1012.08
2018-10-17T04:01:51.910Z,1012.08
2018-10-17T04:02:52.300Z,1012.06
2018-10-17T04:03:51.821Z,1012.07
2018-10-17T04:04:51.820Z,1012.05
2018-10-17T04:05:51.798Z,1012.10
2018-10-17T04:06:51.900Z,1012.08
2018-10-17T04:07:51.807Z,1012.12
2018-10-17T04:08:51.861Z,1012.15
2018-10-17T04:09:53.961Z,1012.09
2018-10-17T04:10:51.424Z,1012.07
2018-10-17T04:11:51.766Z,1012.10
2018-10-17T04:12:51.939Z,1012.11
2018-10-17T04:13:51.944Z,1012.05
2018-10-17T04:14:51.899Z,1012.01
2018-10-17T04:15:51.922Z,1012.01
2018-10-17T04:16:51.938Z,1012.01
2018-10-17T04:17:51.926Z,1011.97
2018-10-17T04:18:52.228Z,1012.04
2018-10-17T04:19:51.453Z,1011.98
2018-10-17T04:20:51.912Z,1011.99
2018-10-17T04:21:53.916Z,1011.99
2018-10-17T04:22:51.941Z,1012.01
2018-10-17T04:23:51.475Z,1011.95
2018-10-17T04:24:51.829Z,1012.02
2018-10-17T04:25:51.942Z,1011.96
2018-10-17T04:26:51.787Z,1012.04
2018-10-17T04:27:52.141Z,1012.01
2018-10-17T04:28:51.931Z,1012.01
2018-10-17T04:29:51.964Z,1012.00
2018-10-17T04:30:51.932Z,1012.02
2018-10-17T04:31:51.918Z,1012.00
2018-10-17T04:32:52.279Z,1012.00
2018-10-17T04:33:52.269Z,1012.02
2018-10-17T04:34:52.430Z,1012.03
2018-10-17T04:35:51.966Z,1012.01
2018-10-17T04:36:52.424Z,1012.02
2018-10-17T04:37:51.969Z,1012.00
2018-10-17T04:38:53.913Z,1012.04
2018-10-17T04:39:51.918Z,1012.03
2018-10-17T04:40:51.953Z,1012.00
2018-10-17T04:41:52.015Z,1012.06
2018-10-17T04:42:52.032Z,1012.05
2018-10-17T04:43:51.989Z,1012.05
2018-10-17T04:44:52.002Z,1012.06
2018-10-17T04:45:51.851Z,1012.10
2018-10-17T04:46:51.836Z,1012.11
2018-10-17T04:47:51.965Z,1012.10
2018-10-17T04:48:52.010Z,1012.11
2018-10-17T04:49:51.987Z,1012.11
2018-10-17T04:50:51.774Z,1012.11
2018-10-17T04:51:51.415Z,1012.11
2018-10-17T04:52:51.878Z,1012.08
2018-10-17T04:53:51.913Z,1012.08
2018-10-17T04:54:51.962Z,1012.07
2018-10-17T04:55:51.937Z,1012.10
2018-10-17T04:56:51.716Z,1012.12
2018-10-17T04:57:51.914Z,1012.12
2018-10-17T04:58:51.947Z,1012.09
2018-10-17T04:59:51.968Z,1012.10
2018-10-17T05:00:51.747Z,1012.06
2018-10-17T05:01:51.936Z,1012.06
2018-10-17T05:02:52.022Z,1012.07
2018-10-17T05:03:51.915Z,1012.09
2018-10-17T05:04:51.789Z,1012.09
2018-10-17T05:05:51.968Z,1012.08
2018-10-17T05:06:54.331Z,1012.08
2018-10-17T05:07:52.021Z,1012.07
2018-10-17T05:08:51.916Z,1012.11
2018-10-17T05:09:51.947Z,1012.10
2018-10-17T05:10:51.962Z,1012.09
2018-10-17T05:11:52.278Z,1012.05
2018-10-17T05:12:51.750Z,1012.05
2018-10-17T05:13:51.759Z,1012.02
2018-10-17T05:14:51.716Z,1012.03
2018-10-17T05:15:51.923Z,1012.04
2018-10-17T05:16:52.398Z,1012.07
2018-10-17T05:17:51.780Z,1012.05
2018-10-17T05:18:51.990Z,1012.06
2018-10-17T05:19:51.969Z,1012.09
2018-10-17T05:20:51.943Z,1012.10
2018-10-17T05:21:51.954Z,1012.11
2018-10-17T05:22:51.957Z,1012.07
2018-10-17T05:23:51.973Z,1012.11
2018-10-17T05:24:51.792Z,1012.05
2018-10-17T05:25:51.778Z,1012.08
2018-10-17T05:26:51.385Z,1012.07
2018-10-17T05:27:51.750Z,1012.08
2018-10-17T05:28:53.552Z,1012.09
2018-10-17T05:29:51.830Z,1012.11
2018-10-17T05:30:51.934Z,1012.07
2018-10-17T05:31:52.224Z,1012.07
2018-10-17T05:32:51.930Z,1012.08
2018-10-17T05:33:51.951Z,1012.08
2018-10-17T05:34:51.998Z,1012.08
2018-10-17T05:35:51.946Z,1012.12
2018-10-17T05:36:51.940Z,1012.09
2018-10-17T05:37:51.866Z,1012.16
2018-10-17T05:38:51.932Z,1012.14
2018-10-17T05:39:51.793Z,1012.13
2018-10-17T05:40:51.494Z,1012.16
2018-10-17T05:41:52.036Z,1012.14
2018-10-17T05:42:51.560Z,1012.19
2018-10-17T05:43:52.029Z,1012.21
2018-10-17T05:44:51.473Z,1012.25
2018-10-17T05:45:52.027Z,1012.26
2018-10-17T05:46:51.998Z,1012.26
2018-10-17T05:47:51.931Z,1012.25
2018-10-17T05:48:51.982Z,1012.24
2018-10-17T05:49:52.159Z,1012.25
2018-10-17T05:50:52.388Z,1012.25
2018-10-17T05:51:51.986Z,1012.23
2018-10-17T05:52:52.422Z,1012.21
2018-10-17T05:53:51.474Z,1012.29
2018-10-17T05:54:52.046Z,1012.23
2018-10-17T05:55:52.293Z,1012.26
2018-10-17T05:56:51.977Z,1012.23
2018-10-17T05:57:51.288Z,1012.27
2018-10-17T05:58:51.562Z,1012.25
2018-10-17T05:59:53.402Z,1012.29
2018-10-17T06:03:24.617Z,1012.29
2018-10-17T06:04:24.482Z,1012.31
2018-10-17T06:06:19.168Z,1012.29
2018-10-17T06:07:21.578Z,1012.32
2018-10-17T06:09:14.109Z,1012.32
2018-10-17T06:10:14.345Z,1012.32
2018-10-17T06:12:08.768Z,1012.29
2018-10-17T06:13:08.931Z,1012.29
2018-10-17T06:15:03.409Z,1012.33
2018-10-17T06:16:03.507Z,1012.29
2018-10-17T06:17:57.278Z,1012.34
2018-10-17T06:18:58.282Z,1012.33
2018-10-17T06:20:52.919Z,1012.33
2018-10-17T06:21:52.982Z,1012.30
2018-10-17T06:22:52.928Z,1012.33
2018-10-17T06:23:52.947Z,1012.37
2018-10-17T06:24:52.429Z,1012.37
2018-10-17T06:25:52.937Z,1012.37
2018-10-17T06:26:52.778Z,1012.41
2018-10-17T06:27:52.920Z,1012.40
2018-10-17T06:28:52.830Z,1012.40
2018-10-17T06:29:52.941Z,1012.38
2018-10-17T06:31:13.517Z,1012.39
2018-10-17T06:32:52.403Z,1012.39
2018-10-17T06:34:47.104Z,1012.41
2018-10-17T06:35:47.094Z,1012.41
2018-10-17T06:39:32.156Z,1012.40
2018-10-17T06:40:30.845Z,1012.42
2018-10-17T06:42:32.472Z,1012.41
2018-10-17T06:43:26.588Z,1012.46
2018-10-17T06:44:47.522Z,1012.46
2018-10-17T06:48:51.935Z,1012.41
2018-10-17T06:50:06.691Z,1012.46
2018-10-17T06:50:58.779Z,1012.46
2018-10-17T06:51:59.777Z,1012.40
2018-10-17T06:53:26.748Z,1012.43
2018-10-17T06:53:51.931Z,1012.45
2018-10-17T06:54:51.025Z,1012.42
2018-10-17T06:58:25.055Z,1012.38
2018-10-17T07:00:34.334Z,1012.37
2018-10-17T07:01:55.841Z,1012.39
2018-10-17T07:02:35.027Z,1012.38
2018-10-17T07:05:21.817Z,1012.42
2018-10-17T07:06:23.296Z,1012.41
2018-10-17T07:08:42.889Z,1012.39
2018-10-17T07:11:28.372Z,1012.46
2018-10-17T07:14:29.283Z,1012.49
2018-10-17T07:18:05.634Z,1012.54
2018-10-17T07:22:16.451Z,1012.56
2018-10-17T07:25:06.195Z,1012.55
2018-10-17T07:26:42.116Z,1012.52
2018-10-17T07:29:44.069Z,1012.53
2018-10-17T07:34:41.608Z,1012.57
2018-10-17T07:35:44.040Z,1012.57
2018-10-17T07:36:48.570Z,1012.59
2018-10-17T07:47:32.598Z,1012.58
2018-10-17T07:53:40.097Z,1012.56
2018-10-17T07:54:41.111Z,1012.61
2018-10-17T07:57:07.613Z,1012.57
2018-10-17T07:59:49.309Z,1012.62
2018-10-17T08:01:24.671Z,1012.59
2018-10-17T08:01:49.222Z,1012.62
2018-10-17T08:02:48.822Z,1012.60
2018-10-17T08:03:49.371Z,1012.61
2018-10-17T08:04:48.760Z,1012.61
2018-10-17T08:05:53.009Z,1012.61
2018-10-17T08:07:24.149Z,1012.62
2018-10-17T08:07:49.016Z,1012.60
2018-10-17T08:08:48.096Z,1012.63
2018-10-17T08:09:48.718Z,1012.62
2018-10-17T08:10:48.776Z,1012.66
2018-10-17T08:11:50.098Z,1012.64
2018-10-17T08:12:49.256Z,1012.61
2018-10-17T08:13:49.831Z,1012.57
2018-10-17T08:14:48.725Z,1012.61
2018-10-17T08:17:23.283Z,1012.61
2018-10-17T08:19:37.697Z,1012.56
2018-10-17T08:21:38.341Z,1012.59
2018-10-17T08:22:38.451Z,1012.57
2018-10-17T08:23:38.490Z,1012.61
2018-10-17T08:24:39.027Z,1012.57
2018-10-17T08:25:36.974Z,1012.59
2018-10-17T08:26:36.976Z,1012.63
2018-10-17T08:27:37.046Z,1012.64
2018-10-17T08:28:36.936Z,1012.62
2018-10-17T08:29:36.948Z,1012.63
2018-10-17T08:30:37.982Z,1012.59
2018-10-17T08:31:36.959Z,1012.64
2018-10-17T08:32:39.986Z,1012.63
2018-10-17T08:33:36.947Z,1012.62
2018-10-17T08:34:36.975Z,1012.60
2018-10-17T08:35:37.088Z,1012.62
2018-10-17T08:36:39.207Z,1012.67
2018-10-17T08:37:37.375Z,1012.66
2018-10-17T08:38:36.939Z,1012.64
2018-10-17T08:39:36.999Z,1012.65
2018-10-17T08:40:37.079Z,1012.70
2018-10-17T08:41:37.053Z,1012.68
2018-10-17T08:42:37.064Z,1012.67
2018-10-17T08:43:38.973Z,1012.66
2018-10-17T08:44:37.033Z,1012.68
2018-10-17T08:45:36.933Z,1012.67
2018-10-17T08:46:36.993Z,1012.65
2018-10-17T08:47:36.929Z,1012.65
2018-10-17T08:48:38.016Z,1012.61
2018-10-17T08:49:36.954Z,1012.59
2018-10-17T08:50:37.088Z,1012.62
2018-10-17T08:51:36.927Z,1012.61
2018-10-17T08:52:36.917Z,1012.61
2018-10-17T08:53:37.052Z,1012.63
2018-10-17T08:54:37.042Z,1012.60
2018-10-17T08:55:36.924Z,1012.61
2018-10-17T08:56:36.915Z,1012.60
2018-10-17T08:57:36.984Z,1012.60
2018-10-17T08:58:37.004Z,1012.64
2018-10-17T08:59:37.550Z,1012.66
2018-10-17T09:00:36.970Z,1012.67
2018-10-17T09:01:36.938Z,1012.67
2018-10-17T09:02:37.045Z,1012.70
2018-10-17T09:05:22.266Z,1012.67
2018-10-17T09:07:38.141Z,1012.72
2018-10-17T09:08:36.779Z,1012.67
2018-10-17T09:12:29.061Z,1012.68
2018-10-17T09:13:09.859Z,1012.67
2018-10-17T09:15:41.679Z,1012.69
2018-10-17T09:17:21.555Z,1012.70
2018-10-17T09:21:08.394Z,1012.65
2018-10-17T09:22:04.573Z,1012.67
2018-10-17T09:24:23.315Z,1012.64
2018-10-17T09:26:13.106Z,1012.67
2018-10-17T09:27:13.143Z,1012.66
2018-10-17T09:29:11.952Z,1012.66
2018-10-17T09:30:09.957Z,1012.67
2018-10-17T09:32:03.134Z,1012.72
2018-10-17T09:33:02.650Z,1012.70
2018-10-17T09:35:02.841Z,1012.73
2018-10-17T09:37:12.154Z,1012.77
2018-10-17T09:41:00.184Z,1012.75
2018-10-17T09:42:00.079Z,1012.72
2018-10-17T09:44:14.248Z,1012.73
2018-10-17T09:45:46.737Z,1012.76
2018-10-17T09:48:00.967Z,1012.75
2018-10-17T09:49:02.258Z,1012.77
2018-10-17T09:55:37.639Z,1012.82
2018-10-17T09:56:41.765Z,1012.83
2018-10-17T09:58:33.398Z,1012.82
2018-10-17T09:59:32.911Z,1012.82
2018-10-17T10:01:41.748Z,1012.84
2018-10-17T10:02:26.058Z,1012.84
2018-10-17T10:04:26.757Z,1012.82
2018-10-17T10:06:38.509Z,1012.84
2018-10-17T10:09:13.367Z,1012.89
2018-10-17T10:11:04.436Z,1012.91
2018-10-17T10:12:03.759Z,1012.90
2018-10-17T10:14:37.237Z,1012.91
2018-10-17T10:16:12.738Z,1012.95
2018-10-17T10:17:13.256Z,1012.99
2018-10-17T10:19:12.808Z,1012.98
2018-10-17T10:21:22.011Z,1012.96
2018-10-17T10:23:57.771Z,1013.03
2018-10-17T10:24:38.383Z,1012.97
2018-10-17T10:26:33.003Z,1012.98
2018-10-17T10:27:52.451Z,1013.03
2018-10-17T10:29:25.633Z,1013.05
2018-10-17T10:31:48.072Z,1013.01
2018-10-17T10:33:56.517Z,1012.99
2018-10-17T10:36:09.260Z,1013.07
2018-10-17T10:37:09.103Z,1013.03
2018-10-17T10:39:06.805Z,1013.01
2018-10-17T10:40:21.995Z,1013.07
2018-10-17T10:41:07.297Z,1013.08
2018-10-17T10:42:12.131Z,1013.09
2018-10-17T10:44:48.500Z,1013.06
2018-10-17T10:47:19.094Z,1013.05
2018-10-17T10:49:10.481Z,1013.08
2018-10-17T10:51:26.033Z,1012.96
2018-10-17T10:52:28.387Z,1012.97
2018-10-17T10:54:19.696Z,1012.93
2018-10-17T10:57:01.577Z,1012.94
2018-10-17T10:59:21.875Z,1012.94
2018-10-17T11:01:44.366Z,1012.97
2018-10-17T11:04:01.230Z,1013.00
2018-10-17T11:04:38.999Z,1012.99
2018-10-17T11:06:57.571Z,1012.95
2018-10-17T11:07:31.062Z,1012.91
2018-10-17T11:09:25.338Z,1012.89
2018-10-17T11:10:25.705Z,1012.83
2018-10-17T11:12:24.765Z,1012.86
2018-10-17T11:14:41.946Z,1012.75
2018-10-17T11:16:49.598Z,1012.82
2018-10-17T11:20:02.606Z,1012.89
2018-10-17T11:22:09.067Z,1012.84
2018-10-17T11:22:57.352Z,1012.87
2018-10-17T11:27:04.646Z,1012.76
2018-10-17T11:29:01.740Z,1012.81
2018-10-17T11:31:01.864Z,1012.77
2018-10-17T11:32:02.104Z,1012.73
2018-10-17T11:33:53.232Z,1012.67
2018-10-17T11:34:53.158Z,1012.75
2018-10-17T11:36:46.307Z,1012.75
2018-10-17T11:37:46.323Z,1012.70
2018-10-17T11:39:42.831Z,1012.74
2018-10-17T11:40:41.878Z,1012.71
2018-10-17T11:42:36.612Z,1012.74
2018-10-17T11:43:36.790Z,1012.80
2018-10-17T11:45:31.620Z,1012.83
2018-10-17T11:46:29.874Z,1012.77
2018-10-17T11:48:28.409Z,1012.79
2018-10-17T11:49:24.068Z,1012.81
2018-10-17T11:51:18.737Z,1012.78
2018-10-17T11:52:18.758Z,1012.74
2018-10-17T11:54:14.093Z,1012.69
2018-10-17T11:55:13.001Z,1012.68
2018-10-17T11:57:08.256Z,1012.73
2018-10-17T11:58:09.089Z,1012.74
2018-10-17T12:00:01.457Z,1012.68
2018-10-17T12:01:01.517Z,1012.65
2018-10-17T12:02:59.414Z,1012.61
2018-10-17T12:03:56.281Z,1012.62
2018-10-17T12:05:50.767Z,1012.58
2018-10-17T12:06:50.327Z,1012.56
2018-10-17T12:08:44.910Z,1012.56
2018-10-17T12:09:44.909Z,1012.52
2018-10-17T12:11:41.831Z,1012.46
2018-10-17T12:12:40.320Z,1012.43
2018-10-17T12:14:34.450Z,1012.43
2018-10-17T12:15:33.654Z,1012.44
2018-10-17T12:17:27.565Z,1012.40
2018-10-17T12:18:29.496Z,1012.43
2018-10-17T12:20:21.690Z,1012.43
2018-10-17T12:21:22.496Z,1012.42
2018-10-17T12:23:15.969Z,1012.42
2018-10-17T12:24:16.065Z,1012.43
2018-10-17T12:26:10.067Z,1012.42
2018-10-17T12:27:10.193Z,1012.39
2018-10-17T12:29:05.526Z,1012.39
2018-10-17T12:30:05.506Z,1012.37
2018-10-17T12:32:00.958Z,1012.42
2018-10-17T12:32:59.711Z,1012.38
2018-10-17T12:34:54.803Z,1012.39
2018-10-17T12:35:54.786Z,1012.40
2018-10-17T12:37:49.468Z,1012.34
2018-10-17T12:38:50.394Z,1012.36
2018-10-17T12:40:42.695Z,1012.36
2018-10-17T12:41:44.129Z,1012.37
2018-10-17T12:43:36.730Z,1012.38
2018-10-17T12:44:37.802Z,1012.35
2018-10-17T12:46:33.367Z,1012.35
2018-10-17T12:47:32.028Z,1012.31
2018-10-17T12:49:26.760Z,1012.31
2018-10-17T12:50:29.534Z,1012.38
2018-10-17T12:52:19.705Z,1012.36
2018-10-17T12:53:19.469Z,1012.35
2018-10-17T12:55:13.653Z,1012.28
2018-10-17T12:56:13.535Z,1012.30
2018-10-17T12:58:09.777Z,1012.35
2018-10-17T12:59:09.295Z,1012.31
2018-10-17T13:01:03.920Z,1012.33
2018-10-17T13:02:04.520Z,1012.34
2018-10-17T13:03:58.259Z,1012.29
2018-10-17T13:04:58.577Z,1012.28
2018-10-17T13:05:58.148Z,1012.26
2018-10-17T13:06:58.272Z,1012.24
2018-10-17T13:07:58.704Z,1012.24
2018-10-17T13:08:57.928Z,1012.20
2018-10-17T13:09:58.647Z,1012.21
2018-10-17T13:10:58.742Z,1012.17
2018-10-17T13:11:58.510Z,1012.17
2018-10-17T13:12:59.161Z,1012.17
2018-10-17T13:13:58.135Z,1012.11
2018-10-17T13:14:59.110Z,1012.14
2018-10-17T13:15:59.104Z,1012.11
2018-10-17T13:16:59.162Z,1012.14
2018-10-17T13:17:59.006Z,1012.13
2018-10-17T13:18:58.152Z,1012.15
2018-10-17T13:19:58.150Z,1012.17
2018-10-17T13:20:58.720Z,1012.15
2018-10-17T13:21:58.711Z,1012.10
2018-10-17T13:22:58.696Z,1012.10
2018-10-17T13:23:58.596Z,1012.11
2018-10-17T13:24:59.116Z,1012.10
2018-10-17T13:25:58.555Z,1012.13
2018-10-17T13:26:58.590Z,1012.10
2018-10-17T13:27:58.478Z,1012.14
2018-10-17T13:28:58.680Z,1012.14
2018-10-17T13:29:58.729Z,1012.11
2018-10-17T13:30:59.030Z,1012.13
2018-10-17T13:31:58.664Z,1012.09
2018-10-17T13:32:59.000Z,1012.08
2018-10-17T13:33:58.724Z,1012.11
2018-10-17T13:34:58.764Z,1012.10
2018-10-17T13:35:58.623Z,1012.09
2018-10-17T13:36:58.715Z,1012.11
2018-10-17T13:37:58.657Z,1012.10
2018-10-17T13:38:58.673Z,1012.08
2018-10-17T13:39:58.712Z,1012.06
2018-10-17T13:40:58.817Z,1012.06
2018-10-17T13:41:59.076Z,1012.01
2018-10-17T13:42:59.093Z,1012.02
2018-10-17T13:43:59.518Z,1012.00
2018-10-17T13:44:58.669Z,1012.01
2018-10-17T13:45:58.728Z,1012.04
2018-10-17T13:46:59.229Z,1012.03
2018-10-17T13:47:58.669Z,1012.03
2018-10-17T13:48:59.045Z,1012.04
2018-10-17T13:49:58.745Z,1011.97
2018-10-17T13:50:59.014Z,1012.05
2018-10-17T13:52:00.722Z,1012.00
2018-10-17T13:52:59.264Z,1012.03
2018-10-17T13:53:59.167Z,1012.03
2018-10-17T13:55:01.115Z,1012.01
2018-10-17T13:56:00.673Z,1012.04
2018-10-17T13:56:58.672Z,1011.99
2018-10-17T13:58:00.776Z,1012.00
2018-10-17T13:58:58.699Z,1012.01
2018-10-17T13:59:59.180Z,1011.95
2018-10-17T14:01:01.082Z,1011.97
2018-10-17T14:01:59.241Z,1011.95
2018-10-17T14:03:00.672Z,1011.94
2018-10-17T14:04:00.720Z,1011.94
2018-10-17T14:04:58.709Z,1011.97
2018-10-17T14:05:58.697Z,1011.97
2018-10-17T14:07:00.794Z,1011.93
2018-10-17T14:07:58.904Z,1011.94
2018-10-17T14:08:59.071Z,1011.95
2018-10-17T14:09:59.238Z,1011.93
2018-10-17T14:10:59.148Z,1011.95
2018-10-17T14:12:00.809Z,1011.96
2018-10-17T14:12:58.683Z,1011.94
2018-10-17T14:13:59.229Z,1011.93
2018-10-17T14:15:00.756Z,1011.95
2018-10-17T14:16:00.678Z,1011.92
2018-10-17T14:16:58.398Z,1011.92
2018-10-17T14:17:58.796Z,1011.94
2018-10-17T14:19:00.808Z,1011.95
2018-10-17T14:20:00.689Z,1011.94
2018-10-17T14:21:00.784Z,1011.96
2018-10-17T14:21:58.696Z,1011.95
2018-10-17T14:22:58.685Z,1011.97
2018-10-17T14:24:01.618Z,1011.96
2018-10-17T14:24:58.692Z,1011.91
2018-10-17T14:25:59.183Z,1011.93
2018-10-17T14:26:59.776Z,1011.96
2018-10-17T14:27:59.514Z,1011.98
2018-10-17T14:28:59.997Z,1011.95
2018-10-17T14:29:59.554Z,1011.93
2018-10-17T14:32:56.026Z,1011.95
2018-10-17T14:33:55.655Z,1011.94
2018-10-17T14:34:56.586Z,1011.96
2018-10-17T14:35:56.058Z,1011.95
2018-10-17T14:36:56.491Z,1011.96
2018-10-17T14:37:55.759Z,1012.00
2018-10-17T14:38:56.178Z,1011.99
2018-10-17T14:39:56.253Z,1011.97
2018-10-17T14:40:55.835Z,1012.01
2018-10-17T14:41:56.664Z,1011.99
2018-10-17T14:42:58.080Z,1012.03
2018-10-17T14:43:56.017Z,1011.96
2018-10-17T14:44:56.561Z,1011.96
2018-10-17T14:45:55.780Z,1011.99
2018-10-17T14:46:56.523Z,1011.97
2018-10-17T14:47:55.751Z,1012.00
2018-10-17T14:48:56.124Z,1011.98
2018-10-17T14:49:56.595Z,1012.04
2018-10-17T14:50:56.234Z,1011.95
2018-10-17T14:51:56.717Z,1011.92